Time;durP1;ratioP1;P1;durP2;ratioP2;P2;SDS_P1;SDS_P2;PMS_P1;PMS_P2;Temp;Humidity;BMP_temperature;BMP_pressure;BME280_temperature;BME280_humidity;BME280_pressure;Samples;Min_cycle;Max_cycle;Signal;HPM_P1;HPM_P2
2022/11/29 00:00:05;;;;;;;302.77;46.20;;;8.70;99.90;;;;;;5093521;27;20055;-86
2022/11/29 00:02:34;;;;;;;326.38;48.47;;;8.70;99.90;;;;;;5140329;27;20082;-87
2022/11/29 00:05:01;;;;;;;406.40;52.03;;;8.70;99.90;;;;;;5130445;27;20047;-87
2022/11/29 00:07:26;;;;;;;409.20;50.58;;;8.80;99.90;;;;;;5113480;27;20488;-87
2022/11/29 00:09:52;;;;;;;397.17;51.00;;;8.70;99.90;;;;;;5140900;27;20027;-88
2022/11/29 00:12:18;;;;;;;399.10;51.08;;;8.70;99.90;;;;;;5113840;27;20473;-87
2022/11/29 00:14:49;;;;;;;311.42;46.00;;;8.70;99.90;;;;;;5100765;27;20046;-88
2022/11/29 00:17:18;;;;;;;469.80;53.80;;;8.80;99.90;;;;;;5088958;27;20697;-87
2022/11/29 00:19:44;;;;;;;400.98;50.35;;;8.80;99.90;;;;;;5119376;27;20050;-87
2022/11/29 00:22:10;;;;;;;249.20;41.75;;;8.70;99.90;;;;;;5111167;27;20047;-87
2022/11/29 00:24:36;;;;;;;331.45;47.60;;;8.70;99.90;;;;;;5118487;27;20042;-86
2022/11/29 00:27:02;;;;;;;426.48;49.83;;;8.70;99.90;;;;;;5105512;27;20069;-86
2022/11/29 00:29:32;;;;;;;399.35;48.63;;;8.80;99.90;;;;;;5113908;27;20035;-86
2022/11/29 00:32:04;;;;;;;424.10;49.40;;;8.70;99.90;;;;;;5111215;27;20059;-87
2022/11/29 00:34:30;;;;;;;375.77;47.92;;;8.70;99.90;;;;;;5141015;27;20065;-87
2022/11/29 00:37:01;;;;;;;317.95;47.05;;;8.70;99.90;;;;;;5120026;27;20043;-88
2022/11/29 00:39:29;;;;;;;344.13;47.47;;;8.70;99.90;;;;;;5114271;27;20505;-87
2022/11/29 00:41:56;;;;;;;488.63;53.60;;;8.70;99.90;;;;;;5095189;27;20039;-87
2022/11/29 00:44:23;;;;;;;452.08;51.42;;;8.70;99.90;;;;;;5110721;27;20082;-87
2022/11/29 00:46:50;;;;;;;291.83;43.03;;;8.70;99.90;;;;;;5136082;27;20050;-86
2022/11/29 00:49:16;;;;;;;340.63;45.70;;;8.70;99.90;;;;;;5131048;27;20043;-87
2022/11/29 00:52:08;;;;;;;214.60;38.97;;;8.70;99.90;;;;;;5133213;27;20039;-87
2022/11/29 00:54:34;;;;;;;240.23;41.30;;;8.80;99.90;;;;;;5120773;27;20046;-83
2022/11/29 00:57:03;;;;;;;234.15;39.03;;;8.70;99.90;;;;;;5113505;27;20043;-83
2022/11/29 00:59:32;;;;;;;208.02;40.33;;;8.70;99.90;;;;;;5106054;27;20066;-83
2022/11/29 01:01:57;;;;;;;284.88;40.47;;;8.70;99.90;;;;;;5127772;27;20039;-87
2022/11/29 01:04:23;;;;;;;330.40;42.97;;;8.70;99.90;;;;;;5121850;27;20043;-87
2022/11/29 01:06:50;;;;;;;311.35;42.17;;;8.70;99.90;;;;;;5099417;27;20051;-87
2022/11/29 01:09:16;;;;;;;376.33;46.28;;;8.70;99.90;;;;;;5123484;27;20039;-87
2022/11/29 01:11:42;;;;;;;165.45;35.70;;;8.70;99.90;;;;;;5087193;27;20057;-87
2022/11/29 01:14:09;;;;;;;437.65;49.00;;;8.70;99.90;;;;;;5093548;27;20145;-86
2022/11/29 01:16:35;;;;;;;279.45;42.03;;;8.70;99.90;;;;;;5108490;27;20039;-87
2022/11/29 01:19:14;;;;;;;364.70;49.03;;;8.70;99.90;;;;;;5122951;27;20047;-87
2022/11/29 01:21:40;;;;;;;266.83;43.20;;;8.70;99.90;;;;;;5155895;27;20035;-87
2022/11/29 01:24:06;;;;;;;400.00;49.97;;;8.70;99.90;;;;;;5112150;27;20035;-88
2022/11/29 01:26:32;;;;;;;396.02;52.03;;;8.70;99.90;;;;;;5126475;27;20041;-87
2022/11/29 01:28:59;;;;;;;336.52;48.40;;;8.70;99.90;;;;;;5089299;27;20039;-86
2022/11/29 01:31:35;;;;;;;268.48;43.55;;;8.70;99.90;;;;;;5118962;27;20034;-87
2022/11/29 01:34:02;;;;;;;278.20;46.15;;;8.70;99.90;;;;;;5128588;27;20039;-86
2022/11/29 01:36:32;;;;;;;252.48;43.38;;;8.70;99.90;;;;;;5124610;27;20035;-87
2022/11/29 01:38:59;;;;;;;;;;;8.70;99.90;;;;;;5114414;27;20126;-87
2022/11/29 01:41:28;;;;;;;244.55;41.60;;;8.60;99.90;;;;;;5105743;27;19927;-86
2022/11/29 01:44:02;;;;;;;187.20;40.60;;;8.60;99.90;;;;;;5114613;27;20512;-88
2022/11/29 01:46:32;;;;;;;398.33;51.25;;;8.60;99.90;;;;;;5110797;27;20118;-87
2022/11/29 01:49:31;;;;;;;416.15;54.83;;;8.60;99.90;;;;;;5103438;27;20041;-87
2022/11/29 01:52:07;;;;;;;120.85;35.88;;;8.60;99.90;;;;;;5100064;27;20047;-87
2022/11/29 01:54:42;;;;;;;292.67;46.42;;;8.60;99.90;;;;;;5111143;27;20070;-87
2022/11/29 01:57:11;;;;;;;217.80;42.20;;;8.60;99.90;;;;;;5135232;27;20570;-86
2022/11/29 01:59:43;;;;;;;322.92;47.20;;;8.60;99.90;;;;;;5094963;27;20141;-87
2022/11/29 02:02:15;;;;;;;343.77;51.90;;;8.60;99.90;;;;;;5118927;27;20042;-87
2022/11/29 02:04:44;;;;;;;392.48;51.42;;;8.60;99.90;;;;;;5105115;27;20887;-87
2022/11/29 02:07:10;;;;;;;415.63;52.33;;;8.60;99.90;;;;;;5106824;27;21385;-87
2022/11/29 02:09:41;;;;;;;484.95;59.60;;;8.60;99.90;;;;;;5087345;27;20088;-87
2022/11/29 02:12:32;;;;;;;413.90;53.17;;;8.60;99.90;;;;;;5086243;27;20096;-87
2022/11/29 02:15:22;;;;;;;375.95;52.20;;;8.50;99.90;;;;;;5108809;27;20042;-86
2022/11/29 02:18:06;;;;;;;375.92;53.85;;;8.60;99.90;;;;;;5115408;27;20044;-87
2022/11/29 02:20:47;;;;;;;428.90;58.58;;;8.50;99.90;;;;;;5141344;27;20048;-83
2022/11/29 02:23:19;;;;;;;462.98;57.70;;;8.50;99.90;;;;;;5101930;27;20046;-82
2022/11/29 02:26:06;;;;;;;136.25;39.35;;;8.50;99.90;;;;;;5125717;27;20374;-83
2022/11/29 02:28:59;;;;;;;445.27;57.83;;;8.50;99.90;;;;;;5106609;27;20090;-82
2022/11/29 02:31:28;;;;;;;319.45;49.35;;;8.50;99.90;;;;;;5116251;27;20444;-87
2022/11/29 02:34:06;;;;;;;293.25;46.05;;;8.50;99.90;;;;;;5110115;27;20502;-86
2022/11/29 02:37:05;;;;;;;262.38;45.70;;;8.50;99.90;;;;;;5112745;27;20499;-87
2022/11/29 02:39:35;;;;;;;215.38;42.15;;;8.50;99.90;;;;;;5121898;27;20430;-86
2022/11/29 02:42:19;;;;;;;283.08;45.30;;;8.40;99.90;;;;;;5115093;27;20435;-87
2022/11/29 02:45:18;;;;;;;357.65;52.83;;;8.40;99.90;;;;;;5109769;27;20086;-87
2022/11/29 02:48:16;;;;;;;375.60;51.78;;;8.40;99.90;;;;;;5100693;27;20051;-87
2022/11/29 02:50:59;;;;;;;456.02;57.47;;;8.40;99.90;;;;;;5135539;27;20051;-87
2022/11/29 02:53:32;;;;;;;330.80;51.22;;;8.40;99.90;;;;;;5114066;27;20066;-87
2022/11/29 02:56:10;;;;;;;388.27;50.78;;;8.40;99.90;;;;;;5124648;27;20038;-87
2022/11/29 02:58:42;;;;;;;187.50;41.47;;;8.40;99.90;;;;;;5126768;27;20047;-87
2022/11/29 03:01:27;;;;;;;400.17;53.70;;;8.40;99.90;;;;;;5123511;27;20062;-86
2022/11/29 03:04:10;;;;;;;471.15;59.50;;;8.40;99.90;;;;;;5140864;27;20047;-87
2022/11/29 03:07:14;;;;;;;246.38;44.40;;;8.40;99.90;;;;;;5095251;28;20134;-82
2022/11/29 03:10:01;;;;;;;234.43;42.22;;;8.40;99.90;;;;;;5099938;27;20058;-87
2022/11/29 03:12:45;;;;;;;134.60;34.20;;;8.30;99.90;;;;;;5109787;27;20571;-86
2022/11/29 03:15:26;;;;;;;241.82;42.65;;;8.30;99.90;;;;;;5118631;27;20591;-82
2022/11/29 03:18:04;;;;;;;400.25;49.47;;;8.30;99.90;;;;;;5163265;27;20042;-83
2022/11/29 03:20:33;;;;;;;442.42;52.75;;;8.30;99.90;;;;;;5110553;27;20104;-83
2022/11/29 03:23:31;;;;;;;386.15;50.00;;;8.20;99.90;;;;;;5147352;27;20631;-82
2022/11/29 03:26:09;;;;;;;531.67;57.80;;;8.30;99.90;;;;;;5052521;27;20098;-83
2022/11/29 03:28:54;;;;;;;402.13;48.10;;;8.30;99.90;;;;;;5111813;27;20122;-82
2022/11/29 03:31:33;;;;;;;426.38;48.45;;;8.30;99.90;;;;;;5113977;27;20051;-82
2022/11/29 03:34:25;;;;;;;470.80;51.17;;;8.20;99.90;;;;;;5101565;27;20078;-87
2022/11/29 03:37:15;;;;;;;412.73;46.15;;;8.20;99.90;;;;;;5150574;27;20386;-86
2022/11/29 03:39:44;;;;;;;332.90;42.95;;;8.10;99.90;;;;;;5105116;27;20047;-86
2022/11/29 03:42:16;;;;;;;286.52;41.75;;;8.10;99.90;;;;;;5130728;27;20051;-86
2022/11/29 03:47:55;;;;;;;424.80;47.25;;;8.00;99.90;;;;;;5123836;27;20834;-87
2022/11/29 03:50:46;;;;;;;262.15;39.75;;;8.10;99.90;;;;;;5104681;27;20043;-85
2022/11/29 03:53:52;;;;;;;193.27;35.85;;;8.00;99.90;;;;;;5105362;27;20046;-82
2022/11/29 03:56:36;;;;;;;312.25;43.40;;;8.00;99.90;;;;;;5093877;27;20039;-82
2022/11/29 03:59:21;;;;;;;127.25;32.67;;;7.90;99.90;;;;;;5148520;27;20063;-82
2022/11/29 04:02:18;;;;;;;118.72;32.88;;;7.90;99.90;;;;;;5149398;27;20047;-82
2022/11/29 04:05:27;;;;;;;303.23;42.95;;;7.90;99.90;;;;;;5132138;27;20146;-83
2022/11/29 04:08:26;;;;;;;440.35;50.47;;;7.90;99.90;;;;;;5083449;27;20051;-83
2022/11/29 04:11:29;;;;;;;418.42;48.65;;;7.90;99.90;;;;;;5104983;27;20489;-86
2022/11/29 04:14:10;;;;;;;380.80;47.03;;;7.80;99.90;;;;;;5104747;27;20635;-86
2022/11/29 04:17:00;;;;;;;268.77;39.53;;;7.80;99.90;;;;;;5132119;27;20075;-86
2022/11/29 04:19:41;;;;;;;372.17;45.78;;;7.80;99.90;;;;;;5106516;27;20054;-86
2022/11/29 04:22:26;;;;;;;136.48;30.67;;;7.80;99.90;;;;;;5119773;27;20085;-86
2022/11/29 04:25:11;;;;;;;149.57;31.67;;;7.80;99.90;;;;;;5123521;27;20047;-85
2022/11/29 04:27:40;;;;;;;483.63;51.83;;;7.70;99.90;;;;;;5120661;27;20078;-86
2022/11/29 04:30:12;;;;;;;490.95;51.85;;;7.70;99.90;;;;;;5099293;27;20522;-86
2022/11/29 04:32:47;;;;;;;183.52;34.22;;;7.70;99.90;;;;;;5104872;27;20047;-86
2022/11/29 04:35:15;;;;;;;215.98;37.90;;;7.80;99.90;;;;;;5102841;27;20108;-87
2022/11/29 04:38:08;;;;;;;366.45;44.47;;;7.70;99.90;;;;;;5114737;27;20054;-87
2022/11/29 04:41:00;;;;;;;435.42;47.38;;;7.70;99.90;;;;;;5119714;27;20047;-83
2022/11/29 04:43:35;;;;;;;150.38;32.60;;;7.70;99.90;;;;;;5119543;27;20043;-83
2022/11/29 04:46:17;;;;;;;318.15;37.60;;;7.70;99.90;;;;;;5144430;27;20083;-86
2022/11/29 04:49:06;;;;;;;472.70;50.85;;;7.70;99.90;;;;;;5105863;27;20083;-86
2022/11/29 04:51:44;;;;;;;506.17;53.33;;;7.70;99.90;;;;;;5100404;27;20130;-87
2022/11/29 04:54:29;;;;;;;283.80;40.55;;;7.70;99.90;;;;;;5100429;27;20080;-87
2022/11/29 04:57:27;;;;;;;250.57;38.25;;;7.70;99.90;;;;;;5126548;27;20043;-85
2022/11/29 05:00:06;;;;;;;260.02;35.78;;;7.70;99.90;;;;;;5119623;27;20075;-86
2022/11/29 05:03:16;;;;;;;531.53;53.10;;;7.70;99.90;;;;;;5101746;27;20071;-86
2022/11/29 05:05:59;;;;;;;413.40;45.85;;;7.70;99.90;;;;;;5056260;28;20144;-86
2022/11/29 05:08:54;;;;;;;453.67;47.53;;;7.70;99.90;;;;;;5023706;27;20047;-87
2022/11/29 05:11:36;;;;;;;445.05;49.08;;;7.60;99.90;;;;;;5115604;27;20061;-87
2022/11/29 05:14:27;;;;;;;123.75;27.27;;;7.60;99.90;;;;;;5102287;27;20095;-87
2022/11/29 05:17:02;;;;;;;;;;;7.60;99.90;;;;;;5100629;27;20045;-86
2022/11/29 05:19:50;;;;;;;290.48;36.90;;;7.60;99.90;;;;;;5124548;27;20464;-86
2022/11/29 05:22:19;;;;;;;565.70;54.88;;;7.50;99.90;;;;;;5100111;27;20115;-87
2022/11/29 05:25:17;;;;;;;;;;;;;;;;;;;;;
2022/11/29 05:28:26;;;;;;;412.38;45.85;;;7.60;99.90;;;;;;5120513;27;20050;-87
2022/11/29 05:30:55;;;;;;;;;;;7.60;99.90;;;;;;5099868;27;20477;-87
2022/11/29 05:34:03;;;;;;;405.08;42.38;;;7.50;99.90;;;;;;5122103;27;20259;-85
2022/11/29 05:36:39;;;;;;;393.95;46.47;;;7.60;99.90;;;;;;5103166;27;20502;-86
2022/11/29 05:39:15;;;;;;;320.30;38.88;;;7.60;99.90;;;;;;5118901;27;20460;-82
2022/11/29 05:41:55;;;;;;;431.63;44.15;;;7.60;99.90;;;;;;5102035;27;20125;-87
2022/11/29 05:44:47;;;;;;;269.02;34.30;;;7.60;99.90;;;;;;5131100;27;20500;-86
2022/11/29 05:47:37;;;;;;;502.15;51.00;;;7.60;99.90;;;;;;5107907;27;20062;-86
2022/11/29 05:50:32;;;;;;;435.00;46.85;;;7.60;99.90;;;;;;5116307;27;20541;-87
2022/11/29 05:53:14;;;;;;;457.42;47.70;;;7.60;99.90;;;;;;5119334;27;20040;-85
2022/11/29 05:56:10;;;;;;;233.77;35.55;;;7.50;99.90;;;;;;5112837;27;20724;-86
2022/11/29 05:58:57;;;;;;;403.70;46.45;;;7.60;99.90;;;;;;5102265;27;20058;-82
2022/11/29 06:01:33;;;;;;;412.40;48.30;;;7.60;99.90;;;;;;5104198;27;20054;-82
2022/11/29 06:04:35;;;;;;;404.73;46.25;;;7.60;99.90;;;;;;5101869;27;20050;-82
2022/11/29 06:07:16;;;;;;;418.85;46.63;;;7.60;99.90;;;;;;5091798;27;20704;-82
2022/11/29 06:10:00;;;;;;;503.23;52.28;;;7.60;99.90;;;;;;5100036;27;20081;-82
2022/11/29 06:12:34;;;;;;;555.95;55.83;;;7.60;99.90;;;;;;5095407;27;20043;-83
2022/11/29 06:15:03;;;;;;;342.95;40.38;;;7.60;99.90;;;;;;5096565;27;20051;-82
2022/11/29 06:17:29;;;;;;;449.88;49.80;;;7.60;99.90;;;;;;5099099;27;20047;-82
2022/11/29 06:20:07;;;;;;;329.88;39.83;;;7.60;99.90;;;;;;5097114;27;20051;-82
2022/11/29 06:22:55;;;;;;;429.05;47.67;;;7.60;99.90;;;;;;5116591;27;20561;-82
2022/11/29 06:25:47;;;;;;;359.80;43.15;;;7.60;99.90;;;;;;5127027;27;20508;-86
2022/11/29 06:28:35;;;;;;;476.85;52.45;;;7.60;99.90;;;;;;5097416;27;20050;-86
2022/11/29 06:31:10;;;;;;;403.15;46.55;;;7.60;99.90;;;;;;5147077;27;20058;-86
2022/11/29 06:33:51;;;;;;;480.05;55.03;;;7.60;99.90;;;;;;5113602;27;20109;-87
2022/11/29 06:36:27;;;;;;;513.42;55.83;;;7.60;99.90;;;;;;5097266;27;20055;-86
2022/11/29 06:39:09;;;;;;;375.70;45.60;;;7.60;99.90;;;;;;5100619;27;20062;-86
2022/11/29 06:41:36;;;;;;;371.67;46.00;;;7.60;99.90;;;;;;5075379;27;20046;-85
2022/11/29 06:44:05;;;;;;;402.30;48.97;;;7.60;99.90;;;;;;5098756;27;20049;-85
2022/11/29 06:47:11;;;;;;;464.98;52.95;;;7.60;99.90;;;;;;5104883;27;20396;-85
2022/11/29 06:50:12;;;;;;;312.77;40.10;;;7.60;99.90;;;;;;5097343;27;20047;-84
2022/11/29 06:53:05;;;;;;;503.75;55.28;;;7.60;99.90;;;;;;5081422;27;20047;-86
2022/11/29 06:56:08;;;;;;;358.80;44.40;;;7.60;99.90;;;;;;5125587;27;20518;-86
2022/11/29 06:59:06;;;;;;;475.27;53.13;;;7.60;99.90;;;;;;5099321;27;20063;-86
2022/11/29 07:02:14;;;;;;;400.05;49.22;;;7.50;99.90;;;;;;5097778;27;20125;-86
2022/11/29 07:05:24;;;;;;;356.92;46.38;;;7.60;99.90;;;;;;5089820;27;20588;-85
2022/11/29 07:07:56;;;;;;;430.95;50.10;;;7.60;99.90;;;;;;5116058;27;20055;-86
2022/11/29 07:10:29;;;;;;;321.15;42.90;;;7.60;99.90;;;;;;5100028;27;20094;-87
2022/11/29 07:13:00;;;;;;;150.85;33.90;;;7.60;99.90;;;;;;5107093;27;20127;-86
2022/11/29 07:16:18;;;;;;;136.38;33.05;;;7.60;99.90;;;;;;5116262;27;20039;-86
2022/11/29 07:19:09;;;;;;;372.50;46.28;;;7.60;99.90;;;;;;5114989;27;20051;-86
2022/11/29 07:22:02;;;;;;;271.30;43.10;;;7.60;99.90;;;;;;5115072;27;20092;-86
2022/11/29 07:28:53;;;;;;;107.60;31.42;;;7.70;99.90;;;;;;5108718;27;21335;-86
2022/11/29 07:35:51;;;;;;;318.08;43.70;;;7.50;99.90;;;;;;5116006;27;21320;-86
2022/11/29 07:39:03;;;;;;;209.10;38.83;;;7.50;99.90;;;;;;5081469;27;20050;-86
2022/11/29 07:42:06;;;;;;;305.75;46.10;;;7.50;99.90;;;;;;5044144;28;20634;-85
2022/11/29 07:44:49;;;;;;;447.90;53.67;;;7.50;99.90;;;;;;5037333;28;20067;-86
2022/11/29 07:47:22;;;;;;;326.40;45.78;;;7.50;99.90;;;;;;5143334;27;20039;-88
2022/11/29 07:49:48;;;;;;;105.38;32.30;;;7.50;99.90;;;;;;5132534;27;20122;-85
2022/11/29 07:52:16;;;;;;;134.55;34.55;;;7.50;99.90;;;;;;5102244;27;20509;-85
2022/11/29 07:54:50;;;;;;;156.23;33.63;;;7.50;99.90;;;;;;5119529;27;20046;-84
2022/11/29 07:57:16;;;;;;;111.97;33.15;;;7.50;99.90;;;;;;5100011;27;20073;-81
2022/11/29 07:59:42;;;;;;;210.65;36.33;;;7.50;99.90;;;;;;5082215;27;20039;-81
2022/11/29 08:02:10;;;;;;;281.42;43.08;;;7.50;99.90;;;;;;5080742;27;20580;-81
2022/11/29 08:04:43;;;;;;;201.52;38.92;;;7.60;99.90;;;;;;5100805;27;20134;-81
2022/11/29 08:07:09;;;;;;;268.15;43.03;;;7.60;99.90;;;;;;5081300;27;20047;-80
2022/11/29 08:09:35;;;;;;;227.35;39.78;;;7.50;99.90;;;;;;5116469;27;20043;-81
2022/11/29 08:12:00;;;;;;;66.18;27.75;;;7.50;99.90;;;;;;5085933;27;20043;-81
2022/11/29 08:14:31;;;;;;;268.58;40.67;;;7.50;99.90;;;;;;5087596;27;20043;-81
2022/11/29 08:16:57;;;;;;;98.85;30.63;;;7.50;99.90;;;;;;5117454;27;20054;-81
2022/11/29 08:19:23;;;;;;;177.82;38.50;;;7.50;99.90;;;;;;5102989;27;20120;-76
2022/11/29 08:21:50;;;;;;;110.63;31.45;;;7.50;99.90;;;;;;5116436;27;20051;-76
2022/11/29 08:24:16;;;;;;;141.65;35.60;;;7.50;99.90;;;;;;5120276;27;20039;-75
2022/11/29 08:26:41;;;;;;;125.82;33.03;;;7.50;99.90;;;;;;5082582;27;20700;-75
2022/11/29 08:29:08;;;;;;;279.63;43.42;;;7.50;99.90;;;;;;5116478;27;20754;-76
2022/11/29 08:31:34;;;;;;;100.85;32.30;;;7.50;99.90;;;;;;5102364;27;20544;-81
2022/11/29 08:33:59;;;;;;;137.02;32.97;;;7.50;99.90;;;;;;5119545;27;20050;-81
2022/11/29 08:36:25;;;;;;;101.80;32.15;;;7.50;99.90;;;;;;5068350;27;20405;-81
2022/11/29 08:38:51;;;;;;;190.55;39.88;;;7.50;99.90;;;;;;5102353;27;20055;-81
2022/11/29 08:41:17;;;;;;;152.48;36.08;;;7.50;99.90;;;;;;5120406;27;20053;-82
2022/11/29 08:43:43;;;;;;;137.70;35.65;;;7.50;99.90;;;;;;5100535;27;20046;-82
2022/11/29 08:46:09;;;;;;;83.05;30.35;;;7.50;99.90;;;;;;5101232;27;20039;-81
2022/11/29 08:48:35;;;;;;;148.90;36.17;;;7.60;99.90;;;;;;5117614;27;20050;-81
2022/11/29 08:51:02;;;;;;;133.55;36.40;;;7.50;99.90;;;;;;5077995;27;20047;-81
2022/11/29 08:53:40;;;;;;;146.02;36.67;;;7.50;99.90;;;;;;5099256;27;20079;-81
2022/11/29 08:56:17;;;;;;;97.68;31.95;;;7.60;99.90;;;;;;5148575;27;20417;-81
2022/11/29 08:58:44;;;;;;;115.22;34.63;;;7.60;99.90;;;;;;5089052;27;20056;-82
2022/11/29 09:01:15;;;;;;;68.18;29.48;;;7.60;99.90;;;;;;5093678;27;20261;-81
2022/11/29 09:06:40;;;;;;;98.55;33.33;;;7.60;99.90;;;;;;5112573;27;20509;-80
2022/11/29 09:09:06;;;;;;;63.92;29.30;;;7.60;99.90;;;;;;5101360;27;20046;-80
2022/11/29 09:11:33;;;;;;;84.03;32.30;;;7.60;99.90;;;;;;5115049;27;20354;-81
2022/11/29 09:14:02;;;;;;;86.55;31.60;;;7.70;99.90;;;;;;5100640;27;20058;-80
2022/11/29 09:16:32;;;;;;;81.70;31.23;;;7.70;99.90;;;;;;5100639;27;20110;-80
2022/11/29 09:19:01;;;;;;;73.93;29.65;;;7.70;99.90;;;;;;5145286;27;20047;-81
2022/11/29 09:21:29;;;;;;;61.95;28.85;;;7.70;99.90;;;;;;5100454;27;20058;-80
2022/11/29 09:24:00;;;;;;;62.65;28.38;;;7.70;99.90;;;;;;5099704;27;20161;-80
2022/11/29 09:26:28;;;;;;;;;;;7.70;99.90;;;;;;5102012;27;20239;-81
2022/11/29 09:28:54;;;;;;;71.53;29.73;;;7.80;99.90;;;;;;5115569;27;19927;-83
2022/11/29 09:31:20;;;;;;;54.88;26.90;;;7.80;99.90;;;;;;5102859;27;20062;-80
2022/11/29 09:33:47;;;;;;;76.50;30.50;;;7.80;99.90;;;;;;5077844;27;20196;-82
2022/11/29 09:36:13;;;;;;;69.80;28.75;;;7.80;99.90;;;;;;5120133;27;20641;-82
2022/11/29 09:38:39;;;;;;;69.72;29.10;;;7.90;99.90;;;;;;5111760;27;20135;-82
2022/11/29 09:41:31;;;;;;;53.03;25.52;;;7.90;99.90;;;;;;5119734;27;20443;-82
2022/11/29 09:44:21;;;;;;;57.22;27.48;;;7.90;99.90;;;;;;5100801;27;20043;-82
2022/11/29 09:47:01;;;;;;;58.05;27.38;;;7.90;99.90;;;;;;5144321;27;20066;-83
2022/11/29 09:49:42;;;;;;;63.20;28.67;;;8.00;99.90;;;;;;5112957;27;20065;-83
2022/11/29 09:52:29;;;;;;;63.72;27.77;;;8.00;99.90;;;;;;5115352;27;20275;-82
2022/11/29 09:55:22;;;;;;;64.68;27.60;;;8.00;99.90;;;;;;5145650;27;20050;-82
2022/11/29 09:57:49;;;;;;;47.40;24.80;;;8.10;99.90;;;;;;5115682;27;20043;-82
2022/11/29 10:00:18;;;;;;;53.10;26.08;;;8.00;99.90;;;;;;5099474;27;20138;-82
2022/11/29 10:03:02;;;;;;;51.35;25.85;;;8.10;99.90;;;;;;5100495;27;20083;-82
2022/11/29 10:05:46;;;;;;;49.95;24.95;;;8.10;99.90;;;;;;5114115;27;20058;-82
2022/11/29 10:08:40;;;;;;;45.67;24.35;;;8.20;99.90;;;;;;5125692;27;20078;-82
2022/11/29 10:11:29;;;;;;;47.35;24.65;;;8.20;99.90;;;;;;5113854;27;20047;-83
2022/11/29 10:14:16;;;;;;;48.85;24.80;;;8.20;99.90;;;;;;5116070;27;20408;-83
2022/11/29 10:17:23;;;;;;;49.10;24.48;;;8.20;99.90;;;;;;5102235;27;20103;-82
2022/11/29 10:20:23;;;;;;;44.22;23.50;;;8.30;99.90;;;;;;5070171;27;20116;-83
2022/11/29 10:22:57;;;;;;;43.73;22.20;;;8.30;99.90;;;;;;5102699;27;20119;-83
2022/11/29 10:25:29;;;;;;;47.58;23.33;;;8.30;99.90;;;;;;5114152;27;20838;-82
2022/11/29 10:27:54;;;;;;;50.40;25.38;;;8.30;99.90;;;;;;5128314;27;20058;-82
2022/11/29 10:30:20;;;;;;;43.13;23.92;;;8.30;99.90;;;;;;5080015;27;20051;-82
2022/11/29 10:32:53;;;;;;;45.92;23.30;;;8.30;99.90;;;;;;5146266;27;20039;-83
2022/11/29 10:35:19;;;;;;;43.60;22.92;;;8.20;99.90;;;;;;5116201;27;20641;-83
2022/11/29 10:37:46;;;;;;;41.38;22.90;;;8.20;99.90;;;;;;5101191;27;20615;-83
2022/11/29 10:40:18;;;;;;;40.17;22.67;;;8.20;99.90;;;;;;5097279;27;20042;-82
2022/11/29 10:42:48;;;;;;;37.40;20.95;;;8.20;99.90;;;;;;5116092;27;20039;-83
2022/11/29 10:45:36;;;;;;;42.93;22.40;;;8.20;99.90;;;;;;5081184;27;20501;-83
2022/11/29 10:48:19;;;;;;;42.75;21.50;;;8.20;99.90;;;;;;5113587;27;20296;-82
2022/11/29 10:50:48;;;;;;;42.00;21.35;;;8.20;99.90;;;;;;5127181;27;20118;-83
2022/11/29 10:53:31;;;;;;;32.90;20.38;;;8.20;99.90;;;;;;5114337;27;20051;-82
2022/11/29 10:56:08;;;;;;;35.97;18.92;;;8.30;99.90;;;;;;5115627;27;20051;-82
2022/11/29 10:58:34;;;;;;;37.25;18.92;;;8.30;99.90;;;;;;5118117;27;20052;-82
2022/11/29 11:01:07;;;;;;;32.50;18.67;;;8.30;99.90;;;;;;5098575;27;20054;-82
2022/11/29 11:03:38;;;;;;;28.20;18.25;;;8.40;99.90;;;;;;5117065;27;20150;-83
2022/11/29 11:06:42;;;;;;;31.85;18.35;;;8.40;99.90;;;;;;5100330;27;20063;-82
2022/11/29 11:09:39;;;;;;;39.08;19.60;;;8.50;99.90;;;;;;5098569;27;20130;-83
2022/11/29 11:12:17;;;;;;;30.98;17.63;;;8.50;99.90;;;;;;5097331;27;20134;-82
2022/11/29 11:14:43;;;;;;;32.38;17.05;;;8.50;99.90;;;;;;5117463;27;20047;-83
2022/11/29 11:17:26;;;;;;;34.53;18.50;;;8.60;99.90;;;;;;5109516;27;20139;-83
2022/11/29 11:20:19;;;;;;;29.90;17.02;;;8.60;99.90;;;;;;5098767;27;20409;-83
2022/11/29 11:23:03;;;;;;;33.00;16.35;;;8.70;99.90;;;;;;5148531;27;20047;-83
2022/11/29 11:25:39;;;;;;;31.45;17.30;;;8.70;99.90;;;;;;5121804;27;20047;-82
2022/11/29 11:28:19;;;;;;;35.00;18.35;;;8.70;99.90;;;;;;5146353;27;20059;-83
2022/11/29 11:30:59;;;;;;;38.55;18.10;;;8.70;99.90;;;;;;5120342;27;20051;-83
2022/11/29 11:33:30;;;;;;;33.33;16.60;;;8.80;99.90;;;;;;5150268;27;20082;-78
2022/11/29 11:36:07;;;;;;;26.10;16.73;;;8.80;99.90;;;;;;5119423;27;20075;-78
2022/11/29 11:38:35;;;;;;;29.48;16.15;;;8.80;99.90;;;;;;5137743;27;20043;-78
2022/11/29 11:44:34;;;;;;;29.92;16.55;;;8.90;99.90;;;;;;5147902;27;20067;-78
2022/11/29 11:47:03;;;;;;;33.47;16.08;;;8.90;99.90;;;;;;5122429;27;20051;-78
2022/11/29 11:49:36;;;;;;;41.53;20.13;;;8.90;99.90;;;;;;5099798;27;20083;-77
2022/11/29 11:52:04;;;;;;;29.80;17.33;;;9.00;99.90;;;;;;5120666;27;20047;-78
2022/11/29 11:54:31;;;;;;;30.75;16.10;;;9.00;99.90;;;;;;5103721;27;20052;-78
2022/11/29 11:56:57;;;;;;;26.73;15.75;;;9.00;99.90;;;;;;5100375;27;20055;-77
2022/11/29 11:59:25;;;;;;;28.00;16.23;;;9.00;99.90;;;;;;5117606;27;20512;-77
2022/11/29 12:01:52;;;;;;;32.63;16.55;;;9.00;99.90;;;;;;5118041;27;20054;-77
2022/11/29 12:04:34;;;;;;;32.20;17.15;;;9.10;99.90;;;;;;5118490;27;20047;-78
2022/11/29 12:07:04;;;;;;;37.47;18.70;;;9.10;99.90;;;;;;5100693;27;20405;-78
2022/11/29 12:09:39;;;;;;;32.42;17.88;;;9.10;99.90;;;;;;5119490;27;20047;-78
2022/11/29 12:12:18;;;;;;;37.47;17.98;;;9.10;99.90;;;;;;5101909;27;20043;-78
2022/11/29 12:15:02;;;;;;;35.30;18.40;;;9.10;99.90;;;;;;5118788;27;20055;-78
2022/11/29 12:17:37;;;;;;;43.20;19.23;;;9.20;99.90;;;;;;5118022;27;20043;-78
2022/11/29 12:20:25;;;;;;;30.48;15.98;;;9.20;99.90;;;;;;5142462;27;20059;-78
2022/11/29 12:22:57;;;;;;;37.70;18.80;;;9.20;99.90;;;;;;5118828;27;20078;-78
2022/11/29 12:25:29;;;;;;;37.13;18.48;;;9.20;99.90;;;;;;5119335;27;20058;-78
2022/11/29 12:27:55;;;;;;;35.35;19.77;;;9.30;99.90;;;;;;5116873;27;20074;-78
2022/11/29 12:30:20;;;;;;;41.72;19.88;;;9.30;99.90;;;;;;5120072;27;20093;-78
2022/11/29 12:33:04;;;;;;;35.70;19.88;;;9.30;99.90;;;;;;5118960;27;20141;-78
2022/11/29 12:35:36;;;;;;;37.88;18.75;;;9.20;99.90;;;;;;5104309;27;20054;-78
2022/11/29 12:38:34;;;;;;;37.25;19.33;;;9.30;99.90;;;;;;5119107;27;20184;-77
2022/11/29 12:41:15;;;;;;;39.55;20.25;;;9.40;99.90;;;;;;5083328;27;20051;-77
2022/11/29 12:44:04;;;;;;;39.03;19.63;;;9.40;99.90;;;;;;5129170;27;20086;-78
2022/11/29 12:46:31;;;;;;;35.72;19.75;;;9.40;99.90;;;;;;5118183;27;20054;-78
2022/11/29 12:49:19;;;;;;;40.88;20.83;;;9.40;99.90;;;;;;5102690;27;20121;-78
2022/11/29 12:52:09;;;;;;;37.80;20.40;;;9.30;99.90;;;;;;5118872;27;20092;-78
2022/11/29 12:54:59;;;;;;;30.77;20.67;;;9.40;99.90;;;;;;5115634;27;20521;-78
2022/11/29 12:57:37;;;;;;;36.05;20.40;;;9.40;99.90;;;;;;5079873;27;20222;-77
2022/11/29 13:00:09;;;;;;;35.95;21.00;;;9.40;99.90;;;;;;5100720;27;20047;-78
2022/11/29 13:02:59;;;;;;;35.85;20.75;;;9.40;99.90;;;;;;5116657;27;20556;-78
2022/11/29 13:05:49;;;;;;;40.95;22.75;;;9.40;99.90;;;;;;5117519;27;20357;-77
2022/11/29 13:08:33;;;;;;;35.08;20.73;;;9.40;99.90;;;;;;5117320;27;20058;-78
2022/11/29 13:11:13;;;;;;;33.70;21.33;;;9.40;99.90;;;;;;5117557;27;20074;-78
2022/11/29 13:13:43;;;;;;;36.97;21.50;;;9.40;99.90;;;;;;5101008;27;20054;-77
2022/11/29 13:16:36;;;;;;;36.53;21.45;;;9.40;99.90;;;;;;5148345;27;20661;-78
2022/11/29 13:19:23;;;;;;;40.47;20.83;;;9.50;99.90;;;;;;5117118;27;20050;-83
2022/11/29 13:22:15;;;;;;;31.52;20.45;;;9.50;99.90;;;;;;5102087;27;20043;-83
2022/11/29 13:24:56;;;;;;;52.15;24.50;;;9.50;99.90;;;;;;5117788;27;20046;-83
2022/11/29 13:27:30;;;;;;;;;;;9.50;99.90;;;;;;5119302;27;20604;-82
2022/11/29 13:29:59;;;;;;;30.70;20.52;;;9.50;99.90;;;;;;5148210;27;20380;-76
2022/11/29 13:32:49;;;;;;;38.35;21.60;;;9.50;99.90;;;;;;5115707;27;20122;-76
2022/11/29 13:35:30;;;;;;;33.15;22.08;;;9.60;99.90;;;;;;5117182;27;20613;-76
2022/11/29 13:38:16;;;;;;;33.85;22.52;;;9.50;99.90;;;;;;5117820;27;20036;-76
2022/11/29 13:40:57;;;;;;;26.17;19.35;;;9.60;99.90;;;;;;5108167;27;20531;-83
2022/11/29 13:43:35;;;;;;;26.63;19.88;;;9.60;99.90;;;;;;5148212;27;20039;-82
2022/11/29 13:46:27;;;;;;;22.13;17.85;;;9.60;99.90;;;;;;5126878;27;20694;-82